• Join FlightAware (Why Join?)
  • Login
  • US Flag 
07:56PM EST


 

Airport Tracker/Info


-or-


 

Live Flight TrackerFlight Track Log ✈ N1944E ✈ 10-Jan-2014 ✈ KCPR - KRKS

Flight Track Log - Related Links

Times and Time Zones

All times are in EST time to prevent confusion due to time zone crossing. See the N1944E flight status page for this flight to view local times or setup timezone preferences in your user account.

Time Position Orientation Groundspeed Altitude Reporting Facility
EST Latitude Longitude Course Direction KTS MPH feet Rate Location/Type
09:36AM 42.7931 -106.5681 236° Southwest 159 183 9,500  Level Denver Center
09:37AM 42.7628 -106.5942 212° Southwest 136 157 10,400 960 Climbing Denver Center
09:38AM 42.6705 -106.9515 236° Southwest  Level Estimated
09:38AM 42.7372 -106.6386 232° Southwest 138 159 11,500  Level Denver Center
09:39AM 42.6437 -107.0051 236° Southwest  Level FlightAware Approximate
09:39AM 42.7206 -106.6814 242° Southwest 134 154 12,000  Level Denver Center
09:40AM 42.6168 -107.0586 236° Southwest  Level FlightAware Approximate
09:40AM 42.6958 -106.7383 239° Southwest 167 192 12,000  Level Denver Center
09:41AM 42.5899 -107.1121 236° Southwest  Level FlightAware Approximate
09:41AM 42.6708 -106.7989 241° Southwest 169 194 11,900  Level Denver Center
09:42AM 42.6425 -106.8550 236° Southwest 173 199 11,800 -60 Descending Denver Center
09:43AM 42.6231 -106.8989 239° Southwest 172 198 11,800  Level Denver Center
09:44AM 42.5958 -106.9572 238° Southwest 167 192 11,800  Level Denver Center
09:45AM 42.5700 -107.0167 239° Southwest 165 190 11,800  Level Denver Center
09:46AM 42.5472 -107.0672 239° Southwest 164 189 11,800  Level Denver Center
09:47AM 42.5211 -107.1264 239° Southwest 164 189 11,900  Climbing Salt Lake Center
09:48AM 42.4992 -107.1750 239° Southwest 161 185 11,900  Level Salt Lake Center
09:49AM 42.4775 -107.2239 239° Southwest 159 183 12,000  Climbing Salt Lake Center
09:50AM 42.4494 -107.2831 237° Southwest 163 188 11,900 -60 Descending Salt Lake Center
09:51AM 42.4242 -107.3317 235° Southwest 165 190 11,900  Level Salt Lake Center
09:52AM 42.4022 -107.3839 240° Southwest 166 191 11,900  Level Salt Lake Center
09:53AM 42.3753 -107.4444 239° Southwest 168 193 12,000  Climbing Salt Lake Center
09:54AM 42.3517 -107.4961 238° Southwest 168 193 12,000  Level Salt Lake Center
09:55AM 42.3225 -107.5564 237° Southwest 170 196 12,000  Level Salt Lake Center
09:56AM 42.2983 -107.6061 237° Southwest 169 194 12,100  Climbing Salt Lake Center
09:57AM 42.2731 -107.6539 234° Southwest 166 191 12,000  Descending Salt Lake Center
09:58AM 42.2397 -107.7061 229° Southwest 164 189 12,100  Climbing Salt Lake Center
09:59AM 42.1992 -107.7419 213° Southwest 171 197 12,100  Level Salt Lake Center
10:00AM 42.1547 -107.7892 218° Southwest 178 205 12,100  Level Salt Lake Center
10:01AM 42.1158 -107.8308 218° Southwest 183 211 12,100  Level Salt Lake Center
10:02AM 42.0764 -107.8714 217° Southwest 185 213 12,100  Level Salt Lake Center
10:03AM 42.0328 -107.9244 222° Southwest 187 215 12,100  Level Salt Lake Center
10:04AM 42.0011 -107.9722 228° Southwest 185 213 12,100  Level Salt Lake Center
10:05AM 41.9689 -108.0186 227° Southwest 180 207 12,100  Level Salt Lake Center
10:06AM 41.9319 -108.0733 228° Southwest 178 205 12,100  Level Salt Lake Center
10:07AM 41.8994 -108.1192 226° Southwest 177 204 12,100  Level Salt Lake Center
10:08AM 41.8614 -108.1728 226° Southwest 178 205 12,100  Level Salt Lake Center
10:09AM 41.8275 -108.2186 225° Southwest 179 206 12,100  Level Salt Lake Center
10:10AM 41.7953 -108.2636 226° Southwest 177 204 12,100  Level Salt Lake Center
10:11AM 41.7586 -108.3153 226° Southwest 174 200 12,100  Level Salt Lake Center
10:12AM 41.7256 -108.3611 226° Southwest 175 201 12,100  Level Salt Lake Center
10:13AM 41.6894 -108.4125 227° Southwest 173 199 12,100  Level Salt Lake Center
10:14AM 41.6578 -108.4575 227° Southwest 172 198 12,100  Level Salt Lake Center
10:15AM 41.6250 -108.5047 227° Southwest 176 203 12,100 -300 Level Salt Lake Center
10:16AM 41.5875 -108.5592 227° Southwest 178 205 11,500 -840 Descending Salt Lake Center
10:17AM 41.5553 -108.6114 231° Southwest 183 211 10,500 -780 Descending Salt Lake Center
10:18AM 41.5328 -108.6781 246° West 179 206 10,000 -300 Descending Salt Lake Center
10:19AM 41.5336 -108.7258 271° West 148 170 10,000  Level Salt Lake Center
10:20AM 41.5431 -108.7669 287° West 132 152 10,000  Level Salt Lake Center
10:21AM 41.5508 -108.8100 284° West 117 135 10,000  Level Salt Lake Center
10:23AM 41.5558 -108.8406 282° West 101 116 10,000 -300 Level Salt Lake Center
10:24AM 41.5622 -108.8778 283° West 94 108 9,400 -540 Descending Salt Lake Center
10:25AM 41.5689 -108.9131 284° West 98 113 8,900 -540 Descending Salt Lake Center